Terminal Aerodrome Forecast
Issued by NWS

Home | Current Version | Previous Version | Text Only | Print | Product List | Glossary On
Versions: 1 2 3 4 5 6 7 8 9 10 11 12 13 14 15 16 17 18 19 20 21 22 23 24 25 26 27 28 29 30 31 32 33 34 35 36 37 38 39 40 41 42
000
FTUS45 KGJT 301152 AAA
TAFEGE
TAF AMD
KEGE 301152Z 3012/0112 00000KT P6SM VCSH BKN002
     FM301400 VRB03KT P6SM SCT020 OVC040
     FM302000 07005KT P6SM VCSH BKN030
     FM302300 01004KT P6SM BKN060
     FM010600 27003KT P6SM BKN100
      AMD LTD TO CLD VIS AND WIND TIL 301300=

USA.gov is the U.S. government's official web portal to all federal, state and local government web resources and services.